Time;durP1;ratioP1;P1;durP2;ratioP2;P2;SDS_P1;SDS_P2;PMS_P1;PMS_P2;Temp;Humidity;BMP_temperature;BMP_pressure;BME280_temperature;BME280_humidity;BME280_pressure;Samples;Min_cycle;Max_cycle;Signal;HPM_P1;HPM_P2
2023/05/07 00:01:06;;;;;;;10.55;7.43;;;13.60;99.90;;;;;;4997176;28;20460;-75
2023/05/07 00:03:32;;;;;;;10.85;6.75;;;13.60;99.90;;;;;;5007096;28;20026;-75
2023/05/07 00:05:58;;;;;;;8.50;6.68;;;13.50;99.90;;;;;;4998420;28;20106;-74
2023/05/07 00:08:23;;;;;;;9.25;7.00;;;13.50;99.90;;;;;;5004207;28;20034;-74
2023/05/07 00:10:49;;;;;;;10.05;6.65;;;13.50;99.90;;;;;;4998440;28;20120;-74
2023/05/07 00:13:15;;;;;;;8.55;6.60;;;13.40;99.90;;;;;;4995992;28;20030;-74
2023/05/07 00:15:40;;;;;;;9.05;7.13;;;13.40;99.90;;;;;;4984462;28;20035;-74
2023/05/07 00:18:06;;;;;;;9.32;7.30;;;13.40;99.90;;;;;;5006526;28;20022;-75
2023/05/07 00:20:31;;;;;;;8.82;6.50;;;13.40;99.90;;;;;;5000890;28;20064;-74
2023/05/07 00:22:57;;;;;;;8.45;6.65;;;13.30;99.90;;;;;;4994907;28;20026;-74
2023/05/07 00:25:22;;;;;;;9.00;7.03;;;13.30;99.90;;;;;;4992358;28;20484;-74
2023/05/07 00:27:48;;;;;;;11.05;6.55;;;13.30;99.90;;;;;;4999788;28;20026;-74
2023/05/07 00:30:14;;;;;;;14.70;7.97;;;13.30;99.90;;;;;;4991558;28;20134;-74
2023/05/07 00:32:39;;;;;;;7.93;5.72;;;13.30;99.90;;;;;;4990015;28;20040;-74
2023/05/07 00:35:07;;;;;;;10.32;6.60;;;13.20;99.90;;;;;;4999049;28;20034;-73
2023/05/07 00:37:33;;;;;;;12.80;7.47;;;13.30;99.90;;;;;;5007957;28;20022;-74
2023/05/07 00:39:59;;;;;;;9.63;7.20;;;13.20;99.90;;;;;;4989236;28;20526;-74
2023/05/07 00:42:24;;;;;;;8.35;6.28;;;13.20;99.90;;;;;;4988865;28;20471;-74
2023/05/07 00:44:50;;;;;;;7.38;5.88;;;13.10;99.90;;;;;;5008076;28;20061;-73
2023/05/07 00:47:17;;;;;;;9.55;6.55;;;13.10;99.90;;;;;;5012631;28;20029;-74
2023/05/07 00:49:44;;;;;;;7.75;6.60;;;13.10;99.90;;;;;;5008680;28;20029;-74
2023/05/07 00:52:12;;;;;;;11.38;6.47;;;13.00;99.90;;;;;;4994936;28;20435;-74
2023/05/07 00:54:40;;;;;;;8.75;6.07;;;13.00;99.90;;;;;;5000863;28;20022;-74
2023/05/07 00:57:06;;;;;;;11.50;7.22;;;13.00;99.90;;;;;;5008261;28;20049;-74
2023/05/07 00:59:32;;;;;;;9.35;6.60;;;13.00;99.90;;;;;;4997026;28;20085;-75
2023/05/07 01:01:59;;;;;;;11.18;6.97;;;13.00;99.90;;;;;;4996291;28;20037;-74
2023/05/07 01:04:25;;;;;;;9.52;6.70;;;13.00;99.90;;;;;;4999819;28;20108;-74
2023/05/07 01:06:52;;;;;;;8.63;6.80;;;13.00;99.90;;;;;;5004299;28;20038;-74
2023/05/07 01:09:19;;;;;;;11.18;7.18;;;13.00;99.90;;;;;;5005417;28;20041;-74
2023/05/07 01:11:49;;;;;;;6.22;5.63;;;13.10;99.90;;;;;;4995570;28;20022;-74
2023/05/07 01:14:14;;;;;;;7.18;4.93;;;13.10;99.90;;;;;;4981125;28;20023;-75
2023/05/07 01:16:41;;;;;;;4.10;3.78;;;13.10;99.90;;;;;;4992619;28;20108;-73
2023/05/07 01:19:08;;;;;;;9.38;6.38;;;13.10;99.90;;;;;;5002827;28;20018;-74
2023/05/07 01:21:36;;;;;;;7.95;6.80;;;13.10;99.90;;;;;;4998592;28;20085;-74
2023/05/07 01:24:02;;;;;;;11.02;8.32;;;13.20;99.90;;;;;;5007607;28;20022;-74
2023/05/07 01:26:28;;;;;;;13.07;7.70;;;13.30;99.90;;;;;;4995772;28;20043;-74
2023/05/07 01:28:53;;;;;;;13.32;8.98;;;13.30;99.90;;;;;;4999422;28;20030;-75
2023/05/07 01:31:19;;;;;;;14.75;8.07;;;13.30;99.90;;;;;;4988308;28;20099;-74
2023/05/07 01:33:48;;;;;;;14.93;8.35;;;13.40;99.90;;;;;;5005902;28;20451;-74
2023/05/07 01:36:15;;;;;;;10.77;7.68;;;13.40;99.90;;;;;;4991537;28;20025;-74
2023/05/07 01:38:41;;;;;;;11.15;7.32;;;13.40;99.90;;;;;;4991934;28;20369;-74
2023/05/07 01:41:07;;;;;;;10.63;7.78;;;13.50;99.90;;;;;;5005270;28;20116;-74
2023/05/07 01:43:33;;;;;;;11.18;8.45;;;13.50;99.90;;;;;;4983394;28;20455;-74
2023/05/07 01:46:01;;;;;;;11.13;7.38;;;13.50;99.90;;;;;;4992164;28;20038;-74
2023/05/07 01:48:27;;;;;;;10.10;7.65;;;13.50;99.90;;;;;;4995197;28;20121;-74
2023/05/07 01:50:52;;;;;;;8.23;6.15;;;13.60;99.90;;;;;;4996678;28;20119;-73
2023/05/07 01:53:18;;;;;;;11.95;8.40;;;13.50;99.90;;;;;;4994719;28;20033;-74
2023/05/07 01:55:43;;;;;;;9.98;7.68;;;13.50;99.90;;;;;;5003197;28;20083;-74
2023/05/07 01:58:09;;;;;;;11.15;8.30;;;13.50;99.90;;;;;;4997057;28;20053;-75
2023/05/07 02:00:35;;;;;;;14.45;8.93;;;13.60;99.90;;;;;;4991171;28;20035;-74
2023/05/07 02:03:01;;;;;;;14.13;8.63;;;13.60;99.90;;;;;;4995640;28;20410;-74
2023/05/07 02:05:27;;;;;;;12.40;9.52;;;13.60;99.90;;;;;;4985563;28;20033;-74
2023/05/07 02:07:52;;;;;;;15.13;10.57;;;13.60;99.90;;;;;;4980544;28;20038;-74
2023/05/07 02:10:18;;;;;;;12.98;9.15;;;13.60;99.90;;;;;;5002824;28;20040;-74
2023/05/07 02:12:44;;;;;;;12.73;8.75;;;13.60;99.90;;;;;;4995427;28;20511;-74
2023/05/07 02:15:10;;;;;;;9.30;7.07;;;13.60;99.90;;;;;;4989826;28;20088;-74
2023/05/07 02:17:38;;;;;;;12.48;8.50;;;13.60;99.90;;;;;;4986927;28;20018;-74
2023/05/07 02:20:04;;;;;;;11.88;8.00;;;13.60;99.90;;;;;;4990613;28;20034;-74
2023/05/07 02:22:30;;;;;;;11.10;9.20;;;13.60;99.90;;;;;;4997806;28;20057;-74
2023/05/07 02:24:55;;;;;;;14.15;9.70;;;13.50;99.90;;;;;;5005081;28;20018;-74
2023/05/07 02:27:21;;;;;;;13.30;9.52;;;13.50;99.90;;;;;;4994126;28;20470;-74
2023/05/07 02:29:46;;;;;;;9.27;8.27;;;13.60;99.90;;;;;;5002182;28;20041;-74
2023/05/07 02:32:12;;;;;;;13.00;10.48;;;13.50;99.90;;;;;;4989616;28;20018;-74
2023/05/07 02:34:37;;;;;;;16.10;10.02;;;13.50;99.90;;;;;;5002981;28;20117;-74
2023/05/07 02:37:03;;;;;;;13.50;11.18;;;13.50;99.90;;;;;;4997125;28;20482;-73
2023/05/07 02:39:28;;;;;;;15.15;10.93;;;13.60;99.90;;;;;;5000470;28;20034;-74
2023/05/07 02:41:54;;;;;;;11.10;9.15;;;13.50;99.90;;;;;;4998887;28;20042;-74
2023/05/07 02:44:19;;;;;;;12.82;9.40;;;13.50;99.90;;;;;;4993344;28;20360;-74
2023/05/07 02:46:45;;;;;;;15.63;11.65;;;13.50;99.90;;;;;;4993282;28;20092;-74
2023/05/07 02:49:10;;;;;;;13.85;11.23;;;13.50;99.90;;;;;;4990763;28;20030;-74
2023/05/07 02:51:36;;;;;;;14.77;10.93;;;13.40;99.90;;;;;;4995521;28;20034;-74
2023/05/07 02:54:02;;;;;;;14.40;10.70;;;13.50;99.90;;;;;;4989640;28;20031;-74
2023/05/07 02:56:27;;;;;;;10.82;9.40;;;13.50;99.90;;;;;;4980328;28;20103;-74
2023/05/07 02:58:53;;;;;;;14.63;10.23;;;13.50;99.90;;;;;;4997035;28;20080;-74
2023/05/07 03:01:18;;;;;;;15.30;10.98;;;13.40;99.90;;;;;;5002843;28;20056;-74
2023/05/07 03:03:44;;;;;;;15.77;11.57;;;13.40;99.90;;;;;;5005202;28;20022;-74
2023/05/07 03:06:10;;;;;;;15.05;12.80;;;13.40;99.90;;;;;;5000786;28;20026;-74
2023/05/07 03:08:36;;;;;;;20.30;15.57;;;13.40;99.90;;;;;;4997349;28;20019;-74
2023/05/07 03:11:02;;;;;;;18.80;15.15;;;13.40;99.90;;;;;;5001810;28;20441;-74
2023/05/07 03:13:27;;;;;;;15.98;12.32;;;13.40;99.90;;;;;;4995413;28;20030;-74
2023/05/07 03:15:53;;;;;;;19.48;15.25;;;13.40;99.90;;;;;;4998731;28;20037;-74
2023/05/07 03:18:18;;;;;;;21.60;17.58;;;13.30;99.90;;;;;;4997621;28;20026;-74
2023/05/07 03:20:44;;;;;;;16.65;13.40;;;13.40;99.90;;;;;;5014141;28;20402;-74
2023/05/07 03:23:09;;;;;;;18.23;13.50;;;13.40;99.90;;;;;;5008483;28;20021;-74
2023/05/07 03:25:35;;;;;;;20.52;14.50;;;13.40;99.90;;;;;;4997271;28;20101;-76
2023/05/07 03:28:01;;;;;;;21.45;16.42;;;13.40;99.90;;;;;;5003318;28;20022;-75
2023/05/07 03:30:26;;;;;;;25.38;19.23;;;13.40;99.90;;;;;;4993723;28;20105;-74
2023/05/07 03:32:52;;;;;;;25.15;21.27;;;13.40;99.90;;;;;;5004765;28;20485;-74
2023/05/07 03:35:17;;;;;;;28.35;23.13;;;13.40;99.90;;;;;;4993301;28;20402;-74
2023/05/07 03:37:43;;;;;;;28.75;23.33;;;13.50;99.90;;;;;;5000659;28;20027;-74
2023/05/07 03:40:10;;;;;;;27.42;21.42;;;13.50;99.90;;;;;;4996781;28;20174;-74
2023/05/07 03:42:35;;;;;;;29.27;22.75;;;13.50;99.90;;;;;;5002378;28;20053;-74
2023/05/07 03:45:01;;;;;;;27.10;22.63;;;13.50;99.90;;;;;;4989062;28;20486;-74
2023/05/07 03:47:27;;;;;;;27.50;22.48;;;13.60;99.90;;;;;;4985254;28;20074;-74
2023/05/07 03:49:53;;;;;;;32.33;27.10;;;13.50;99.90;;;;;;4996919;28;20030;-74
2023/05/07 03:52:23;;;;;;;31.40;24.88;;;13.60;99.90;;;;;;5009657;28;20046;-74
2023/05/07 03:54:49;;;;;;;36.33;27.50;;;13.60;99.90;;;;;;4993758;28;20105;-74
2023/05/07 03:57:15;;;;;;;40.53;27.75;;;13.60;99.90;;;;;;4994796;28;20026;-74
2023/05/07 03:59:40;;;;;;;35.03;29.63;;;13.60;99.90;;;;;;4994766;28;20034;-74
2023/05/07 04:02:06;;;;;;;33.33;28.30;;;13.60;99.90;;;;;;4999181;28;20050;-73
2023/05/07 04:04:32;;;;;;;34.35;27.80;;;13.60;99.90;;;;;;5002785;28;20022;-74
2023/05/07 04:06:59;;;;;;;38.97;30.70;;;13.60;99.90;;;;;;4986400;28;20050;-74
2023/05/07 04:09:25;;;;;;;39.72;32.58;;;13.60;99.90;;;;;;4984609;28;20034;-74
2023/05/07 04:11:50;;;;;;;37.20;28.75;;;13.60;99.90;;;;;;4988665;28;20362;-75
2023/05/07 04:14:16;;;;;;;40.47;31.85;;;13.60;99.90;;;;;;4989358;28;20030;-74
2023/05/07 04:16:41;;;;;;;36.80;30.67;;;13.60;99.90;;;;;;4988875;28;20062;-74
2023/05/07 04:19:07;;;;;;;38.40;31.55;;;13.70;99.90;;;;;;5002461;28;20014;-75
2023/05/07 04:21:33;;;;;;;38.47;31.35;;;13.70;99.90;;;;;;5005671;28;20030;-74
2023/05/07 04:23:58;;;;;;;39.00;30.85;;;13.70;99.90;;;;;;5006796;28;20022;-74
2023/05/07 04:26:24;;;;;;;39.80;31.90;;;13.70;99.90;;;;;;4990198;28;20737;-74
2023/05/07 04:28:49;;;;;;;37.10;30.77;;;13.80;99.90;;;;;;4993307;28;20036;-74
2023/05/07 04:31:15;;;;;;;39.83;30.63;;;13.70;99.90;;;;;;4998253;28;20030;-74
2023/05/07 04:33:41;;;;;;;38.15;30.80;;;13.80;99.90;;;;;;5005464;28;20414;-75
2023/05/07 04:36:06;;;;;;;38.72;30.33;;;13.80;99.90;;;;;;5008183;28;20029;-75
2023/05/07 04:38:32;;;;;;;37.53;30.38;;;13.80;99.90;;;;;;4998626;28;20048;-74
2023/05/07 04:41:04;;;;;;;35.22;28.80;;;13.80;99.90;;;;;;5005805;28;20085;-75
2023/05/07 04:43:29;;;;;;;35.25;28.83;;;13.90;99.90;;;;;;4994844;28;20046;-74
2023/05/07 04:45:55;;;;;;;34.05;27.88;;;13.90;99.90;;;;;;5000297;28;20030;-75
2023/05/07 04:48:20;;;;;;;36.45;29.30;;;13.90;99.90;;;;;;4987694;28;20069;-75
2023/05/07 04:50:49;;;;;;;37.60;28.48;;;13.90;99.90;;;;;;4982816;28;20088;-75
2023/05/07 04:53:15;;;;;;;38.72;30.42;;;14.00;99.90;;;;;;4986884;28;20034;-75
2023/05/07 04:55:41;;;;;;;39.42;31.02;;;14.00;99.90;;;;;;4991461;28;20026;-74
2023/05/07 04:58:07;;;;;;;36.58;29.38;;;13.90;99.90;;;;;;4997865;28;20050;-75
2023/05/07 05:00:33;;;;;;;41.58;29.75;;;14.00;99.90;;;;;;5003320;28;20047;-75
2023/05/07 05:02:58;;;;;;;37.55;30.67;;;14.00;99.90;;;;;;4994037;28;20451;-74
2023/05/07 05:05:24;;;;;;;34.97;27.83;;;14.00;99.90;;;;;;4983825;28;20030;-75
2023/05/07 05:07:51;;;;;;;37.75;28.77;;;14.10;99.90;;;;;;4984982;28;20098;-75
2023/05/07 05:10:17;;;;;;;35.97;29.33;;;14.10;99.90;;;;;;4989576;28;20023;-74
2023/05/07 05:12:42;;;;;;;37.17;29.05;;;14.20;99.90;;;;;;4986899;28;20045;-75
2023/05/07 05:15:10;;;;;;;35.03;28.02;;;14.20;99.90;;;;;;5007608;28;20026;-75
2023/05/07 05:17:36;;;;;;;38.83;29.75;;;14.30;99.90;;;;;;4995322;28;20022;-74
2023/05/07 05:20:02;;;;;;;36.75;29.67;;;14.30;99.90;;;;;;5000724;28;20111;-74
2023/05/07 05:22:29;;;;;;;39.72;28.88;;;14.40;99.90;;;;;;4980059;28;20136;-75
2023/05/07 05:24:55;;;;;;;33.28;27.42;;;14.50;99.90;;;;;;4984277;28;20053;-74
2023/05/07 05:27:20;;;;;;;33.28;27.70;;;14.50;99.90;;;;;;4988578;28;20030;-74
2023/05/07 05:29:46;;;;;;;30.05;26.25;;;14.50;99.90;;;;;;4994940;28;20026;-74
2023/05/07 05:32:11;;;;;;;32.95;27.90;;;14.60;99.90;;;;;;4991213;28;20066;-74
2023/05/07 05:34:37;;;;;;;33.08;27.27;;;14.60;99.90;;;;;;5002296;28;20033;-74
2023/05/07 05:37:03;;;;;;;32.38;27.25;;;14.60;99.90;;;;;;5008833;28;20072;-75
2023/05/07 05:39:29;;;;;;;32.75;27.23;;;14.60;99.90;;;;;;5004545;28;20034;-75
2023/05/07 05:41:54;;;;;;;34.45;27.98;;;14.70;99.90;;;;;;4999816;28;20061;-75
2023/05/07 05:44:20;;;;;;;34.05;27.45;;;14.70;99.90;;;;;;4994462;28;20077;-75
2023/05/07 05:46:46;;;;;;;29.88;24.50;;;14.70;99.90;;;;;;4994703;28;20034;-74
2023/05/07 05:49:11;;;;;;;31.67;27.38;;;14.70;99.90;;;;;;4986326;28;20033;-74
2023/05/07 05:51:37;;;;;;;33.60;27.60;;;14.70;99.90;;;;;;4987107;28;20030;-74
2023/05/07 05:54:02;;;;;;;33.45;27.15;;;14.70;99.90;;;;;;4989279;28;20027;-74
2023/05/07 05:56:28;;;;;;;32.45;27.60;;;14.70;99.90;;;;;;4992387;28;20398;-74
2023/05/07 05:58:53;;;;;;;35.20;27.67;;;14.70;99.90;;;;;;4989011;28;20046;-74
2023/05/07 06:01:19;;;;;;;36.58;26.52;;;14.80;99.90;;;;;;4995307;28;20040;-74
2023/05/07 06:03:45;;;;;;;32.13;27.42;;;14.80;99.90;;;;;;4994160;28;20459;-73
2023/05/07 06:06:14;;;;;;;34.72;27.55;;;14.90;99.90;;;;;;4992769;28;20041;-74
2023/05/07 06:08:40;;;;;;;32.30;26.88;;;14.90;99.90;;;;;;4990323;28;20038;-73
2023/05/07 06:11:05;;;;;;;31.27;26.63;;;15.00;99.90;;;;;;4988889;28;20022;-73
2023/05/07 06:13:31;;;;;;;30.30;26.33;;;15.00;99.90;;;;;;4997142;28;20072;-73
2023/05/07 06:15:56;;;;;;;33.20;26.13;;;15.00;99.90;;;;;;4998398;28;20475;-75
2023/05/07 06:18:22;;;;;;;31.63;24.92;;;15.00;99.90;;;;;;4987347;28;20387;-75
2023/05/07 06:20:48;;;;;;;31.50;26.95;;;15.00;99.90;;;;;;4987298;28;20154;-74
2023/05/07 06:23:14;;;;;;;28.60;24.70;;;15.00;99.90;;;;;;4979947;28;20062;-74
2023/05/07 06:25:40;;;;;;;32.08;24.73;;;15.10;99.90;;;;;;4986167;28;20483;-74
2023/05/07 06:28:06;;;;;;;31.48;25.23;;;15.20;99.90;;;;;;4994163;28;20049;-73
2023/05/07 06:30:32;;;;;;;29.67;26.10;;;15.30;99.90;;;;;;4993394;28;20030;-74
2023/05/07 06:32:57;;;;;;;32.63;25.75;;;15.20;99.90;;;;;;4992437;28;20110;-75
2023/05/07 06:35:24;;;;;;;29.98;25.75;;;15.30;99.90;;;;;;4986029;28;20046;-74
2023/05/07 06:37:49;;;;;;;32.08;24.88;;;15.30;99.90;;;;;;4991450;28;20026;-74
2023/05/07 06:40:15;;;;;;;31.10;25.23;;;15.30;99.90;;;;;;4989783;28;20037;-73
2023/05/07 06:42:41;;;;;;;28.70;24.73;;;15.30;99.90;;;;;;4986682;28;20584;-73
2023/05/07 06:45:08;;;;;;;29.95;24.50;;;15.30;99.90;;;;;;5000710;28;20026;-74
2023/05/07 06:47:34;;;;;;;29.23;23.70;;;15.30;99.90;;;;;;4989042;28;20031;-74
2023/05/07 06:49:59;;;;;;;29.08;23.23;;;15.30;99.90;;;;;;5000143;28;20030;-73
2023/05/07 06:52:25;;;;;;;26.90;22.90;;;15.30;99.90;;;;;;4992115;28;20030;-73
2023/05/07 06:54:51;;;;;;;29.58;24.48;;;15.40;99.90;;;;;;4999522;28;20030;-74
2023/05/07 06:57:17;;;;;;;28.83;23.90;;;15.40;99.90;;;;;;5006765;28;20022;-74
2023/05/07 06:59:42;;;;;;;29.05;23.63;;;15.50;99.90;;;;;;4993624;28;20572;-74
2023/05/07 07:02:08;;;;;;;28.90;24.13;;;15.50;99.90;;;;;;4998861;28;20104;-73
2023/05/07 07:04:34;;;;;;;32.95;25.40;;;15.60;99.90;;;;;;4987402;28;20018;-74
2023/05/07 07:06:59;;;;;;;30.23;25.27;;;15.70;99.90;;;;;;4994681;28;20034;-73
2023/05/07 07:09:25;;;;;;;28.50;23.92;;;15.80;99.90;;;;;;5004474;28;20030;-74
2023/05/07 07:11:51;;;;;;;33.22;24.67;;;15.80;99.90;;;;;;4997206;28;20475;-74
2023/05/07 07:14:16;;;;;;;26.30;23.23;;;15.90;99.90;;;;;;4989815;28;20022;-74
2023/05/07 07:16:42;;;;;;;30.92;23.83;;;15.90;99.90;;;;;;4996065;28;20037;-74
2023/05/07 07:19:08;;;;;;;27.00;23.25;;;15.90;99.90;;;;;;4985972;28;20014;-74
2023/05/07 07:21:33;;;;;;;27.48;24.27;;;15.90;99.90;;;;;;5001363;28;20088;-74
2023/05/07 07:23:59;;;;;;;28.27;23.55;;;15.90;99.90;;;;;;4996056;28;20037;-74
2023/05/07 07:26:24;;;;;;;27.42;23.70;;;15.90;99.90;;;;;;4997738;28;20084;-73
2023/05/07 07:28:50;;;;;;;29.23;23.27;;;15.90;99.90;;;;;;4994318;28;20477;-72
2023/05/07 07:31:16;;;;;;;27.48;22.23;;;16.00;99.90;;;;;;4999181;28;20030;-74
2023/05/07 07:33:41;;;;;;;28.70;23.77;;;16.00;99.90;;;;;;5014025;28;20049;-72
2023/05/07 07:36:08;;;;;;;29.05;22.92;;;16.00;99.90;;;;;;5010393;28;20018;-73
2023/05/07 07:38:34;;;;;;;26.98;22.27;;;16.10;99.90;;;;;;5013446;28;20022;-73
2023/05/07 07:41:00;;;;;;;28.30;22.75;;;16.10;99.90;;;;;;5012423;28;20038;-73
2023/05/07 07:43:26;;;;;;;28.85;22.95;;;16.10;99.90;;;;;;5006163;28;20030;-73
2023/05/07 07:45:51;;;;;;;21.02;17.83;;;16.10;99.90;;;;;;5000773;28;20042;-74
2023/05/07 07:48:17;;;;;;;28.60;21.58;;;16.20;99.90;;;;;;5005400;28;20470;-73
2023/05/07 07:50:42;;;;;;;30.25;23.45;;;16.10;99.90;;;;;;5005472;28;20389;-72
2023/05/07 07:53:08;;;;;;;26.15;22.23;;;16.20;99.90;;;;;;5007798;28;20534;-73
2023/05/07 07:55:38;;;;;;;31.00;21.35;;;16.20;99.90;;;;;;5005533;28;20026;-72
2023/05/07 07:58:04;;;;;;;29.88;23.60;;;16.30;99.90;;;;;;5001407;28;20253;-73
2023/05/07 08:00:30;;;;;;;29.92;21.90;;;16.40;99.90;;;;;;4985291;28;20078;-73
2023/05/07 08:02:56;;;;;;;24.65;20.90;;;16.40;99.90;;;;;;4989435;28;20069;-73
2023/05/07 08:05:21;;;;;;;24.33;20.88;;;16.50;99.90;;;;;;5002896;28;20085;-73
2023/05/07 08:07:51;;;;;;;28.38;21.58;;;16.40;99.90;;;;;;4986126;28;20506;-72
2023/05/07 08:10:21;;;;;;;27.25;21.55;;;16.50;99.90;;;;;;4984239;28;20736;-72
2023/05/07 08:12:47;;;;;;;22.08;19.42;;;16.50;99.90;;;;;;4984820;28;20034;-73
2023/05/07 08:15:13;;;;;;;24.58;18.70;;;16.60;99.90;;;;;;4986689;28;20034;-73
2023/05/07 08:17:38;;;;;;;24.80;19.77;;;16.60;99.90;;;;;;4989798;28;20108;-73
2023/05/07 08:20:05;;;;;;;22.25;19.48;;;16.60;99.90;;;;;;4990571;28;20093;-72
2023/05/07 08:22:30;;;;;;;21.60;17.63;;;16.80;99.90;;;;;;5004907;28;20417;-72
2023/05/07 08:24:56;;;;;;;23.35;18.52;;;16.90;99.90;;;;;;5003981;28;20081;-72
2023/05/07 08:27:22;;;;;;;20.10;17.65;;;16.90;99.90;;;;;;5010881;28;20117;-73
2023/05/07 08:29:48;;;;;;;22.88;18.60;;;17.00;99.90;;;;;;5003214;28;20022;-73
2023/05/07 08:32:14;;;;;;;20.27;18.17;;;17.10;99.90;;;;;;4989360;28;20022;-73
2023/05/07 08:34:40;;;;;;;19.70;16.83;;;17.20;99.90;;;;;;4990383;28;20105;-71
2023/05/07 08:37:06;;;;;;;19.63;17.30;;;17.40;99.90;;;;;;4991423;28;20022;-73
2023/05/07 08:39:31;;;;;;;21.05;17.88;;;17.60;99.90;;;;;;4993023;28;20643;-73
2023/05/07 08:42:01;;;;;;;19.90;17.30;;;17.60;99.90;;;;;;5001355;28;20026;-73
2023/05/07 08:44:32;;;;;;;17.98;15.38;;;17.70;99.90;;;;;;5002433;28;20030;-73
2023/05/07 08:47:00;;;;;;;17.02;14.95;;;17.80;99.90;;;;;;4990329;28;20030;-73
2023/05/07 08:49:25;;;;;;;19.27;16.20;;;17.90;99.90;;;;;;4992005;28;20081;-73
2023/05/07 08:51:52;;;;;;;17.30;15.40;;;17.90;99.90;;;;;;4998471;28;20065;-73
2023/05/07 08:54:19;;;;;;;17.98;14.98;;;17.90;99.90;;;;;;4993113;28;20081;-72
2023/05/07 08:56:45;;;;;;;16.85;15.05;;;18.00;99.90;;;;;;4993004;28;20026;-72
2023/05/07 08:59:10;;;;;;;17.38;14.75;;;18.10;99.90;;;;;;4985724;28;20103;-72
2023/05/07 09:01:36;;;;;;;17.38;14.10;;;18.30;99.90;;;;;;4988544;28;20168;-73
2023/05/07 09:04:02;;;;;;;15.07;13.57;;;18.50;99.90;;;;;;5004642;28;20026;-72
2023/05/07 09:06:28;;;;;;;15.93;13.73;;;18.50;99.90;;;;;;4984259;28;20087;-73
2023/05/07 09:08:55;;;;;;;15.60;13.63;;;18.70;99.90;;;;;;4982256;28;20528;-73
2023/05/07 09:11:22;;;;;;;15.88;14.05;;;18.70;99.90;;;;;;4984317;28;20109;-73
2023/05/07 09:13:49;;;;;;;16.30;13.48;;;18.90;99.90;;;;;;4979595;28;20026;-73
2023/05/07 09:16:15;;;;;;;15.90;14.30;;;18.90;99.90;;;;;;4988483;28;20160;-73
2023/05/07 09:18:44;;;;;;;16.02;13.05;;;19.00;99.90;;;;;;4990308;28;20062;-72
2023/05/07 09:21:11;;;;;;;14.80;11.98;;;18.90;99.90;;;;;;4983058;28;20069;-73
2023/05/07 09:23:37;;;;;;;14.25;12.85;;;18.90;99.90;;;;;;4981004;28;20033;-72
2023/05/07 09:26:04;;;;;;;13.32;11.93;;;19.10;99.90;;;;;;4984715;28;20053;-73
2023/05/07 09:28:29;;;;;;;13.52;12.07;;;19.30;99.90;;;;;;4983267;28;20072;-73
2023/05/07 09:30:55;;;;;;;14.15;12.60;;;19.50;99.90;;;;;;4995056;28;20433;-73
2023/05/07 09:33:21;;;;;;;14.18;12.00;;;19.50;99.90;;;;;;4986347;28;20501;-73
2023/05/07 09:35:51;;;;;;;16.55;12.93;;;19.60;99.90;;;;;;4997436;28;20047;-73
2023/05/07 09:38:19;;;;;;;13.75;12.35;;;19.60;99.90;;;;;;4982779;28;20031;-73
2023/05/07 09:40:45;;;;;;;15.10;12.18;;;19.70;99.90;;;;;;4993578;28;20038;-73
2023/05/07 09:43:12;;;;;;;13.85;11.38;;;19.90;99.90;;;;;;4996995;28;20026;-71
2023/05/07 09:45:38;;;;;;;16.92;11.80;;;20.10;99.90;;;;;;4992475;28;20592;-71
2023/05/07 09:48:09;;;;;;;14.38;11.88;;;20.40;99.90;;;;;;4992212;28;20109;-72
2023/05/07 09:50:49;;;;;;;12.52;11.00;;;20.70;99.90;;;;;;4989305;28;20045;-72
2023/05/07 09:53:16;;;;;;;13.13;10.15;;;20.80;99.90;;;;;;4979581;28;20450;-72
2023/05/07 09:55:43;;;;;;;15.15;11.40;;;20.80;99.90;;;;;;4983229;28;20045;-73
2023/05/07 09:58:11;;;;;;;12.57;10.32;;;20.80;99.90;;;;;;4996423;28;20046;-73
2023/05/07 10:00:39;;;;;;;13.43;10.07;;;20.90;99.90;;;;;;5003087;28;20045;-71
2023/05/07 10:03:06;;;;;;;13.20;10.35;;;20.80;99.90;;;;;;4998543;28;20019;-72
2023/05/07 10:05:32;;;;;;;11.70;9.88;;;20.90;99.90;;;;;;4989000;28;20034;-72
2023/05/07 10:07:58;;;;;;;14.65;10.55;;;21.00;99.90;;;;;;5006060;28;20026;-71
2023/05/07 10:10:24;;;;;;;11.07;9.23;;;20.90;99.90;;;;;;4999977;28;20504;-72
2023/05/07 10:12:50;;;;;;;12.90;10.30;;;20.90;99.90;;;;;;5003535;28;20105;-72
2023/05/07 10:15:17;;;;;;;13.00;9.90;;;20.90;99.90;;;;;;4982739;28;20109;-72
2023/05/07 10:17:42;;;;;;;15.45;10.60;;;20.90;99.90;;;;;;5010204;28;20053;-72
2023/05/07 10:33:05;;;;;;;10.13;8.00;;;21.60;99.90;;;;;;4992534;23;20058;-73
2023/05/07 10:35:35;;;;;;;9.80;8.15;;;21.60;99.90;;;;;;4988985;28;20398;-72
2023/05/07 10:38:01;;;;;;;9.70;8.27;;;21.70;99.90;;;;;;4983182;28;20398;-71
2023/05/07 10:40:27;;;;;;;9.75;8.38;;;21.90;99.90;;;;;;4987155;28;20121;-72
2023/05/07 10:43:06;;;;;;;9.07;8.15;;;21.80;99.90;;;;;;4990453;28;20149;-72
2023/05/07 10:45:33;;;;;;;10.18;8.38;;;21.80;99.90;;;;;;4992008;28;20073;-72
2023/05/07 10:48:13;;;;;;;8.95;8.00;;;21.90;99.90;;;;;;4978241;28;20022;-72
2023/05/07 10:50:40;;;;;;;11.00;8.63;;;22.00;99.90;;;;;;4969296;28;20709;-72
2023/05/07 10:53:24;;;;;;;8.93;7.03;;;21.90;99.90;;;;;;4969781;28;20029;-73
2023/05/07 10:55:52;;;;;;;11.52;9.25;;;21.80;99.90;;;;;;4972407;28;20034;-73
2023/05/07 10:58:31;;;;;;;9.98;7.38;;;21.80;99.90;;;;;;4955312;28;20030;-73
2023/05/07 11:00:56;;;;;;;8.32;6.97;;;21.90;99.90;;;;;;4971145;28;20049;-73
2023/05/07 11:03:22;;;;;;;10.70;7.68;;;22.00;99.90;;;;;;4971219;28;20383;-74
2023/05/07 11:06:14;;;;;;;8.82;7.90;;;22.00;99.90;;;;;;4972168;28;20079;-73
2023/05/07 11:08:52;;;;;;;;;;;22.00;99.90;;;;;;4971299;28;20479;-72
2023/05/07 11:11:17;;;;;;;9.75;7.15;;;21.90;99.90;;;;;;4971981;28;19910;-74
2023/05/07 11:13:50;;;;;;;9.98;7.47;;;21.90;99.90;;;;;;4955485;28;20459;-73
2023/05/07 11:16:24;;;;;;;10.30;8.57;;;21.70;99.90;;;;;;4973709;28;20023;-73
2023/05/07 11:18:52;;;;;;;12.02;9.15;;;21.70;99.90;;;;;;4974694;28;20073;-72
2023/05/07 11:21:36;;;;;;;12.02;9.07;;;21.50;99.90;;;;;;4982875;28;20046;-74
2023/05/07 11:24:03;;;;;;;9.93;8.15;;;21.50;99.90;;;;;;4995031;28;20033;-74
2023/05/07 11:26:44;;;;;;;11.30;7.72;;;21.40;99.90;;;;;;4989924;28;20330;-73
2023/05/07 11:29:17;;;;;;;10.57;7.80;;;21.40;99.90;;;;;;4975182;28;20042;-74
2023/05/07 11:31:43;;;;;;;11.82;8.30;;;21.30;99.90;;;;;;4975010;28;20046;-73
2023/05/07 11:34:09;;;;;;;9.40;7.57;;;21.20;99.90;;;;;;4975571;28;20069;-73
2023/05/07 11:36:40;;;;;;;10.43;8.13;;;21.10;99.90;;;;;;4973052;28;20030;-73
2023/05/07 11:39:22;;;;;;;10.50;8.27;;;21.00;99.90;;;;;;4956429;28;20031;-73
2023/05/07 11:41:48;;;;;;;8.93;7.10;;;21.00;99.90;;;;;;4974448;28;20065;-72
2023/05/07 11:44:13;;;;;;;9.30;7.18;;;21.00;99.90;;;;;;4971702;28;20542;-72
2023/05/07 11:46:43;;;;;;;9.60;7.47;;;20.90;99.90;;;;;;4949253;28;20118;-72
2023/05/07 11:49:09;;;;;;;10.00;7.07;;;20.80;99.90;;;;;;4965947;28;20022;-73
2023/05/07 11:51:34;;;;;;;7.85;6.15;;;20.70;99.90;;;;;;4973009;28;20475;-73
2023/05/07 11:54:03;;;;;;;10.07;7.20;;;20.70;99.90;;;;;;4984588;28;20052;-72
2023/05/07 11:56:28;;;;;;;8.18;6.80;;;20.70;99.90;;;;;;4982689;28;20027;-73
2023/05/07 11:58:54;;;;;;;9.52;7.03;;;20.70;99.90;;;;;;4976867;28;20368;-73
2023/05/07 12:01:20;;;;;;;8.75;7.85;;;20.70;99.90;;;;;;4971481;28;20039;-73
2023/05/07 12:03:46;;;;;;;11.07;7.82;;;20.80;99.90;;;;;;4980913;28;20027;-73
2023/05/07 12:06:12;;;;;;;9.93;7.85;;;20.80;99.90;;;;;;4974648;28;20088;-73
2023/05/07 12:08:40;;;;;;;9.02;7.53;;;20.80;99.90;;;;;;4966105;28;20038;-73
2023/05/07 12:11:12;;;;;;;10.05;7.53;;;20.90;99.90;;;;;;4977262;28;20078;-73
2023/05/07 12:13:38;;;;;;;8.63;6.63;;;21.00;99.90;;;;;;4976329;28;20031;-73
2023/05/07 12:16:05;;;;;;;9.43;8.43;;;21.00;99.90;;;;;;4990837;28;20089;-73
2023/05/07 12:18:31;;;;;;;11.90;6.93;;;21.10;99.90;;;;;;4989795;28;20030;-73
2023/05/07 12:20:57;;;;;;;9.77;7.35;;;21.30;99.90;;;;;;4981157;28;20042;-73
2023/05/07 12:23:23;;;;;;;10.43;6.80;;;21.40;99.90;;;;;;4983277;28;20049;-72
2023/05/07 12:25:48;;;;;;;7.68;6.30;;;21.50;99.90;;;;;;4973452;28;20030;-72
2023/05/07 12:28:18;;;;;;;8.38;6.45;;;21.60;99.90;;;;;;4981775;28;20134;-73
2023/05/07 12:30:46;;;;;;;8.10;6.65;;;21.60;99.90;;;;;;4979571;28;20023;-73
2023/05/07 12:33:15;;;;;;;8.23;6.68;;;21.60;99.90;;;;;;4981794;28;20509;-73
2023/05/07 12:35:42;;;;;;;6.18;5.50;;;21.60;99.90;;;;;;4973557;28;20037;-72
2023/05/07 12:38:09;;;;;;;10.18;6.28;;;21.70;99.90;;;;;;4981318;28;20544;-73
2023/05/07 12:40:37;;;;;;;7.15;6.22;;;21.60;99.90;;;;;;4986905;28;20405;-73
2023/05/07 12:43:03;;;;;;;8.48;6.05;;;21.70;99.90;;;;;;4979873;28;20078;-73